createdAt,value
2023-05-11T00:02:00.669Z,3.10
2023-05-11T00:05:59.106Z,3.50
2023-05-11T00:10:00.458Z,4.60
2023-05-11T00:13:58.981Z,3.80
2023-05-11T00:18:00.657Z,3.90
2023-05-11T00:21:58.964Z,3.40
2023-05-11T00:26:00.716Z,3.70
2023-05-11T00:29:58.875Z,3.60
2023-05-11T00:34:00.488Z,3.90
2023-05-11T00:37:59.085Z,4.10
2023-05-11T00:42:00.041Z,3.40
2023-05-11T00:45:58.020Z,4.00
2023-05-11T00:49:59.246Z,3.60
2023-05-11T00:53:56.876Z,3.70
2023-05-11T00:57:58.700Z,3.70
2023-05-11T01:01:57.040Z,3.70
2023-05-11T01:05:58.507Z,3.30
2023-05-11T01:09:56.280Z,4.00
2023-05-11T01:13:56.638Z,3.10
2023-05-11T01:17:54.200Z,4.10
2023-05-11T01:21:54.563Z,3.50
2023-05-11T01:25:52.437Z,4.00
2023-05-11T01:29:52.792Z,3.60
2023-05-11T01:33:50.384Z,4.00
2023-05-11T01:37:50.847Z,4.50
2023-05-11T01:41:48.463Z,4.10
2023-05-11T01:45:50.626Z,3.50
2023-05-11T01:49:48.528Z,3.80
2023-05-11T01:53:48.757Z,3.70
2023-05-11T01:57:46.225Z,3.90
2023-05-11T02:01:45.830Z,4.10
2023-05-11T02:05:44.505Z,3.70
2023-05-11T02:09:44.768Z,3.50
2023-05-11T02:13:42.267Z,3.90
2023-05-11T02:17:42.026Z,4.30
2023-05-11T02:21:39.318Z,3.50
2023-05-11T02:25:39.776Z,4.00
2023-05-11T02:29:37.461Z,4.60
2023-05-11T02:33:36.909Z,3.80
2023-05-11T02:37:34.605Z,4.00
2023-05-11T02:41:34.851Z,4.20
2023-05-11T02:45:32.803Z,3.80
2023-05-11T02:49:31.640Z,3.90
2023-05-11T02:53:29.933Z,3.80
2023-05-11T02:57:30.862Z,4.10
2023-05-11T03:01:31.426Z,4.00
2023-05-11T03:05:31.746Z,4.30
2023-05-11T03:09:29.594Z,3.90
2023-05-11T03:13:29.792Z,3.70
2023-05-11T03:17:28.755Z,4.60
2023-05-11T03:21:29.832Z,4.20
2023-05-11T03:25:27.575Z,4.40
2023-05-11T03:29:28.007Z,4.10
2023-05-11T03:33:25.836Z,3.90
2023-05-11T03:37:25.888Z,4.40
2023-05-11T03:41:23.381Z,5.00
2023-05-11T03:45:24.889Z,4.80
2023-05-11T03:49:22.566Z,5.30
2023-05-11T03:53:21.954Z,7.30
2023-05-11T03:57:19.735Z,7.20
2023-05-11T04:01:16.813Z,6.10
2023-05-11T04:05:16.678Z,5.30
2023-05-11T04:09:15.682Z,4.90
2023-05-11T04:13:15.722Z,4.20
2023-05-11T04:17:13.920Z,4.00
2023-05-11T04:21:13.814Z,3.80
2023-05-11T04:25:12.713Z,5.00
2023-05-11T04:29:12.976Z,4.50
2023-05-11T04:33:10.849Z,5.00
2023-05-11T04:37:09.753Z,4.50
2023-05-11T04:41:11.147Z,4.30
2023-05-11T04:45:10.648Z,4.30
2023-05-11T04:49:11.127Z,4.80
2023-05-11T04:53:10.608Z,4.80
2023-05-11T04:57:10.961Z,4.00
2023-05-11T05:01:08.542Z,4.50
2023-05-11T05:05:08.224Z,3.90
2023-05-11T05:09:05.812Z,3.10
2023-05-11T05:13:06.079Z,3.10
2023-05-11T05:17:03.631Z,3.40
2023-05-11T05:21:03.862Z,3.30
2023-05-11T05:25:01.809Z,2.90
2023-05-11T05:29:02.098Z,2.70
2023-05-11T05:33:01.044Z,3.20
2023-05-11T05:37:00.439Z,3.00
2023-05-11T05:40:58.730Z,2.70
2023-05-11T05:44:53.591Z,2.70
2023-05-11T05:48:58.268Z,2.90
2023-05-11T05:52:58.099Z,2.20
2023-05-11T05:56:56.963Z,2.20
2023-05-11T06:00:57.368Z,2.50
2023-05-11T06:05:02.987Z,2.30
2023-05-11T06:09:04.088Z,2.30
2023-05-11T06:13:01.743Z,1.60
2023-05-11T06:16:59.344Z,1.70
2023-05-11T06:20:47.222Z,1.70
2023-05-11T06:24:32.970Z,2.00
2023-05-11T06:28:18.214Z,2.30
2023-05-11T06:32:03.481Z,2.20
2023-05-11T06:35:49.295Z,2.10
2023-05-11T06:39:35.036Z,2.00
2023-05-11T06:43:20.221Z,2.00
2023-05-11T06:47:12.877Z,1.70
2023-05-11T06:51:10.901Z,1.50
2023-05-11T06:55:11.253Z,1.90
2023-05-11T06:59:08.749Z,1.80
2023-05-11T07:03:08.275Z,1.90
2023-05-11T07:07:18.851Z,1.70
2023-05-11T07:11:17.708Z,1.90
2023-05-11T07:15:19.209Z,2.10
2023-05-11T07:19:17.805Z,1.80
2023-05-11T07:23:17.009Z,1.70
2023-05-11T07:27:15.720Z,1.70
2023-05-11T07:31:15.301Z,1.60
2023-05-11T07:35:13.764Z,1.40
2023-05-11T07:39:19.245Z,1.70
2023-05-11T07:43:17.728Z,1.80
2023-05-11T07:47:19.066Z,2.20
2023-05-11T07:51:17.797Z,1.50
2023-05-11T07:55:19.282Z,1.50
2023-05-11T07:59:17.121Z,1.40
2023-05-11T08:03:18.769Z,1.40
2023-05-11T08:07:13.830Z,1.40
2023-05-11T08:11:15.095Z,1.50
2023-05-11T08:15:14.198Z,1.20
2023-05-11T08:19:13.457Z,1.40
2023-05-11T08:23:10.962Z,1.30
2023-05-11T08:27:10.598Z,1.50
2023-05-11T08:31:08.802Z,1.30
2023-05-11T08:35:13.773Z,1.40
2023-05-11T08:39:12.026Z,1.20
2023-05-11T08:43:13.909Z,1.30
2023-05-11T08:47:22.907Z,1.00
2023-05-11T08:51:25.531Z,1.10
2023-05-11T08:55:21.174Z,1.20
2023-05-11T08:59:20.549Z,1.30
2023-05-11T09:03:16.029Z,1.20
2023-05-11T09:07:14.982Z,1.60
2023-05-11T09:11:10.427Z,1.40
2023-05-11T09:15:07.584Z,1.20
2023-05-11T09:19:03.214Z,1.30
2023-05-11T09:23:03.096Z,1.50
2023-05-11T09:26:58.672Z,1.40
2023-05-11T09:30:58.062Z,1.40
2023-05-11T09:34:54.391Z,1.40
2023-05-11T09:38:57.288Z,1.50
2023-05-11T09:42:53.329Z,1.70
2023-05-11T09:46:52.837Z,1.60
2023-05-11T09:50:49.171Z,1.40
2023-05-11T09:54:48.570Z,1.70
2023-05-11T09:58:44.055Z,2.10
2023-05-11T10:02:43.112Z,1.70
2023-05-11T10:06:38.960Z,1.50
2023-05-11T10:10:38.381Z,1.60
2023-05-11T10:14:34.331Z,1.70
2023-05-11T10:18:33.931Z,1.40
2023-05-11T10:22:29.602Z,1.60
2023-05-11T10:26:29.172Z,1.50
2023-05-11T10:30:24.297Z,1.60
2023-05-11T10:34:23.491Z,1.40
2023-05-11T10:38:19.284Z,1.50
2023-05-11T10:42:18.990Z,1.30
2023-05-11T10:46:14.464Z,1.80
2023-05-11T10:50:10.282Z,1.60
2023-05-11T10:54:10.265Z,1.70
2023-05-11T10:58:07.203Z,1.50
2023-05-11T11:02:09.047Z,1.80
2023-05-11T11:06:10.311Z,1.90
2023-05-11T11:10:09.975Z,1.70
2023-05-11T11:14:03.101Z,1.70
2023-05-11T11:18:06.322Z,1.50
2023-05-11T11:22:02.254Z,1.60
2023-05-11T11:26:01.562Z,1.40
2023-05-11T11:29:57.325Z,1.60
2023-05-11T11:33:57.014Z,1.60
2023-05-11T11:37:52.400Z,1.80
2023-05-11T11:41:48.115Z,1.40
2023-05-11T11:45:45.088Z,1.80
2023-05-11T11:49:44.893Z,1.80
2023-05-11T11:53:44.610Z,1.70
2023-05-11T11:57:40.284Z,1.60
2023-05-11T12:01:39.465Z,1.50
2023-05-11T12:05:35.270Z,1.30
2023-05-11T12:09:32.587Z,1.60
2023-05-11T12:13:25.534Z,1.90
2023-05-11T12:17:28.855Z,1.80
2023-05-11T12:21:27.880Z,1.70
2023-05-11T12:25:23.760Z,1.70
2023-05-11T12:29:23.748Z,1.50
2023-05-11T12:33:19.452Z,1.70
2023-05-11T12:37:18.485Z,1.20
2023-05-11T12:41:14.522Z,1.50
2023-05-11T12:45:14.289Z,1.50
2023-05-11T12:49:09.599Z,1.70
2023-05-11T12:53:09.070Z,1.50
2023-05-11T12:57:04.530Z,1.30
2023-05-11T13:01:04.085Z,1.60
2023-05-11T13:04:59.400Z,1.90
2023-05-11T13:08:58.702Z,1.80
2023-05-11T13:12:54.421Z,2.10
2023-05-11T13:16:53.694Z,1.80
2023-05-11T13:20:49.426Z,1.90
2023-05-11T13:24:48.661Z,1.90
2023-05-11T13:28:50.226Z,2.30
2023-05-11T13:32:54.832Z,1.90
2023-05-11T13:36:50.527Z,2.00
2023-05-11T13:40:50.125Z,1.80
2023-05-11T13:44:45.695Z,1.80
2023-05-11T13:48:45.295Z,2.00
2023-05-11T13:52:40.914Z,1.80
2023-05-11T13:56:40.220Z,1.70
2023-05-11T14:00:35.335Z,1.80
2023-05-11T14:04:34.490Z,1.80
2023-05-11T14:08:29.630Z,2.10
2023-05-11T14:12:29.292Z,1.90
2023-05-11T14:16:24.625Z,2.00
2023-05-11T14:20:23.832Z,11.40
2023-05-11T14:24:19.806Z,5.10
2023-05-11T14:28:19.067Z,9.60
2023-05-11T14:32:14.460Z,10.40
2023-05-11T14:36:13.992Z,3.60
2023-05-11T14:40:09.753Z,12.00
2023-05-11T14:44:09.135Z,4.10
2023-05-11T14:48:04.984Z,2.30
2023-05-11T14:52:00.778Z,2.10
2023-05-11T14:56:00.460Z,2.20
2023-05-11T14:59:59.947Z,1.70
2023-05-11T15:03:59.794Z,1.50
2023-05-11T15:08:05.172Z,1.90
2023-05-11T15:12:07.520Z,2.40
2023-05-11T15:16:05.596Z,2.80
2023-05-11T15:20:07.216Z,2.70
2023-05-11T15:24:05.445Z,1.90
2023-05-11T15:28:07.050Z,2.00
2023-05-11T15:32:05.707Z,1.60
2023-05-11T15:36:07.638Z,1.50
2023-05-11T15:40:05.575Z,1.70
2023-05-11T15:44:07.099Z,1.60
2023-05-11T15:48:05.662Z,1.90
2023-05-11T15:52:07.015Z,1.80
2023-05-11T15:56:05.578Z,1.80
2023-05-11T16:00:07.476Z,1.60
2023-05-11T16:04:06.402Z,1.40
2023-05-11T16:08:08.365Z,2.00
2023-05-11T16:12:06.597Z,1.70
2023-05-11T16:16:08.147Z,1.70
2023-05-11T16:20:06.835Z,1.60
2023-05-11T16:24:03.849Z,1.90
2023-05-11T16:28:03.515Z,1.50
2023-05-11T16:32:05.507Z,2.50
2023-05-11T16:36:10.214Z,2.50
2023-05-11T16:40:08.882Z,1.80
2023-05-11T16:44:10.231Z,1.70
2023-05-11T16:48:08.668Z,2.00
2023-05-11T16:52:05.848Z,1.80
2023-05-11T16:55:59.109Z,1.80
2023-05-11T17:00:00.159Z,1.40
2023-05-11T17:03:58.814Z,1.60
2023-05-11T17:08:00.831Z,1.80
2023-05-11T17:11:58.884Z,2.30
2023-05-11T17:15:58.664Z,6.50
2023-05-11T17:19:56.227Z,1.70
2023-05-11T17:23:54.835Z,2.20
2023-05-11T17:27:44.121Z,2.50
2023-05-11T17:31:35.467Z,2.40
2023-05-11T17:35:31.401Z,2.30
2023-05-11T17:39:31.322Z,2.90
2023-05-11T17:43:31.309Z,3.20
2023-05-11T17:47:29.042Z,1.70
2023-05-11T17:51:29.335Z,2.30
2023-05-11T17:55:29.332Z,2.90
2023-05-11T17:59:21.153Z,2.70
2023-05-11T18:03:06.519Z,2.50
2023-05-11T18:06:51.648Z,11.60
2023-05-11T18:10:36.795Z,7.00
2023-05-11T18:14:30.248Z,2.40
2023-05-11T18:18:30.361Z,2.10
2023-05-11T18:22:28.199Z,2.90
2023-05-11T18:26:28.508Z,3.70
2023-05-11T18:30:26.124Z,4.00
2023-05-11T18:34:27.244Z,2.40
2023-05-11T18:38:19.025Z,2.50
2023-05-11T18:42:03.920Z,1.90
2023-05-11T18:45:48.928Z,2.10
2023-05-11T18:49:40.315Z,2.00
2023-05-11T18:53:39.869Z,2.10
2023-05-11T18:57:41.536Z,2.90
2023-05-11T19:01:47.564Z,2.60
2023-05-11T19:05:50.362Z,3.00
2023-05-11T19:09:48.981Z,2.40
2023-05-11T19:13:43.314Z,3.10
2023-05-11T19:17:34.045Z,2.90
2023-05-11T19:21:24.725Z,3.40
2023-05-11T19:25:23.096Z,16.20
2023-05-11T19:29:20.837Z,15.90
2023-05-11T19:33:11.538Z,5.00
2023-05-11T19:36:58.001Z,8.20
2023-05-11T19:40:46.254Z,7.80
2023-05-11T19:44:31.523Z,3.70
2023-05-11T19:48:16.594Z,14.50
2023-05-11T19:52:01.646Z,5.60
2023-05-11T19:55:48.373Z,5.00
2023-05-11T19:59:33.398Z,4.10
2023-05-11T20:03:18.343Z,4.50
2023-05-11T20:07:03.604Z,4.70
2023-05-11T20:10:48.817Z,4.10
2023-05-11T20:14:34.008Z,3.10
2023-05-11T20:18:27.047Z,3.10
2023-05-11T20:22:28.538Z,2.50
2023-05-11T20:26:27.115Z,2.20
2023-05-11T20:30:28.572Z,2.80
2023-05-11T20:34:26.243Z,2.70
2023-05-11T20:38:28.634Z,3.20
2023-05-11T20:42:27.219Z,2.60
2023-05-11T20:46:28.478Z,2.20
2023-05-11T20:50:26.566Z,3.00
2023-05-11T20:54:18.537Z,2.60
2023-05-11T20:58:03.795Z,3.00
2023-05-11T21:01:48.796Z,2.80
2023-05-11T21:05:33.752Z,3.00
2023-05-11T21:09:18.922Z,2.90
2023-05-11T21:13:03.784Z,3.40
2023-05-11T21:16:49.189Z,4.00
2023-05-11T21:20:34.110Z,3.50
2023-05-11T21:24:19.202Z,3.60
2023-05-11T21:28:03.934Z,3.90
2023-05-11T21:32:04.698Z,3.80
2023-05-11T21:36:05.106Z,2.50
2023-05-11T21:40:07.838Z,3.30
2023-05-11T21:44:06.022Z,3.00
2023-05-11T21:48:07.713Z,2.50
2023-05-11T21:52:06.199Z,2.20
2023-05-11T21:56:07.777Z,3.00
2023-05-11T22:00:06.190Z,3.00
2023-05-11T22:04:07.778Z,2.70
2023-05-11T22:08:13.994Z,2.20
2023-05-11T22:12:16.746Z,3.20
2023-05-11T22:16:15.205Z,2.80
2023-05-11T22:20:16.919Z,2.50
2023-05-11T22:24:14.495Z,2.90
2023-05-11T22:28:14.754Z,2.60
2023-05-11T22:32:12.537Z,3.50
2023-05-11T22:36:12.925Z,3.10
2023-05-11T22:40:10.419Z,2.80
2023-05-11T22:44:09.605Z,3.10
2023-05-11T22:48:07.513Z,3.10
2023-05-11T22:52:07.851Z,2.90
2023-05-11T22:56:05.678Z,3.00
2023-05-11T23:00:05.852Z,2.30
2023-05-11T23:04:03.588Z,3.00
2023-05-11T23:08:14.115Z,3.20
2023-05-11T23:12:15.732Z,3.00
2023-05-11T23:16:14.421Z,3.10
2023-05-11T23:20:13.649Z,3.20
2023-05-11T23:24:05.577Z,2.90
2023-05-11T23:27:50.965Z,2.50
2023-05-11T23:31:36.181Z,3.00
2023-05-11T23:35:21.443Z,3.20
2023-05-11T23:39:06.268Z,3.20
2023-05-11T23:42:51.655Z,2.70
2023-05-11T23:46:42.733Z,3.70
2023-05-11T23:50:34.400Z,3.40
2023-05-11T23:54:25.607Z,4.10
2023-05-11T23:58:25.203Z,4.20
